There are no active watches, warnings or advisories for Caledonia (Vermont).

Nearby METAR Reports

 

KCDA - Lyndonville, Vermont, USA
Distance from station: ENE 11mi, 18km
Updated: Tue, 19-Jun-2018 11:55am EDT
Clear
Clear
 Wind from W
Wind: W 13 mph , 20 km/h, Gust: 17 mph , 28 km/h
Temperature: 63°F , 17°C
Dew Point: 50°F , 10°C
Humidity: 64%
Barometer: 29.90 inHg , 1012.5 hPa
Clouds: Clear
Visibility: 10 miles , 16 km
2018/06/19 15:55 KCDA 191555Z AUTO 28011G15KT 10SM CLR 17/10 A2990 RMK AO2 T01700099
K1V4 - St. Johnsbury, Vermont, USA
Distance from station: ESE 12mi, 19km
Updated: Tue, 19-Jun-2018 11:54am EDT

 
Temperature: 66°F , 19°C
Dew Point: 48°F , 9°C
Humidity: 52%
Barometer: 29.85 inHg , 1010.8 hPa
2018/06/19 15:54 K1V4 191554Z AUTO 19/09 A2985 RMK AO1 SLP099 T01890094
 
KMVL - Morrisville, Vermont, USA
Distance from station: W 20mi, 31km
Updated: Tue, 19-Jun-2018 11:54am EDT
Mostly cloudy
Mostly cloudy
 Wind from N
Wind: N 12 mph , 19 km/h, Gust: 18 mph , 30 km/h
Temperature: 63°F , 17°C
Dew Point: 50°F , 10°C
Humidity: 64%
Barometer: 29.91 inHg , 1012.9 hPa
Clouds: Mostly cloudy
Visibility: 10 miles , 16 km
Cloud details: Mostly cloudy 3100 ft
2018/06/19 15:54 KMVL 191554Z AUTO 35010G16KT 10SM BKN031 17/10 A2991 RMK AO2 SLP129 T01720100
KEFK - Newport State, Vermont, USA
Distance from station: N 26mi, 42km
Updated: Tue, 19-Jun-2018 11:55am EDT
Partly cloudy
Partly cloudy
 Wind from WNW
Wind: WNW 10 mph , 17 km/h
Temperature: 61°F , 16°C
Dew Point: 50°F , 10°C
Humidity: 68%
Barometer: 29.90 inHg , 1012.5 hPa
Clouds: Partly cloudy
Visibility: 10 miles , 16 km
Cloud details: Partly cloudy 3200 ft
Partly cloudy 4100 ft
2018/06/19 15:55 KEFK 191555Z AUTO 30009KT 280V350 10SM SCT032 SCT041 16/10 A2990 RMK AO2 T01640102
 
KMPV - Montpelier/Barre, Vermont, USA
Distance from station: SW 27mi, 44km
Updated: Tue, 19-Jun-2018 11:51am EDT
Clear
Clear
 Wind from NW
Wind: NW 9 mph , 15 km/h, Gust: 18 mph , 30 km/h
Temperature: 63°F , 17°C
Dew Point: 52°F , 11°C
Humidity: 68%
Barometer: 29.93 inHg , 1013.5 hPa
Clouds: Clear
Visibility: 10 miles , 16 km
2018/06/19 15:51 KMPV 191551Z AUTO 31008G16KT 10SM CLR 17/11 A2993 RMK AO2 SLP132 T01670111
KHIE - Whitefield, New Hampshire, USA
Distance from station: ESE 34mi, 55km
Updated: Tue, 19-Jun-2018 11:52am EDT
Clear
Clear
 Wind from NW
Wind: NW 15 mph , 24 km/h
Temperature: 68°F , 20°C
Dew Point: 50°F , 10°C
Humidity: 53%
Barometer: 29.85 inHg , 1010.8 hPa
Clouds: Clear
2018/06/19 15:52 KHIE 191552Z AUTO 31013KT CLR 20/10 A2985 RMK AO2 SLP106 T02000100 $
 
KBTV - Burlington, Vermont, USA
Distance from station: W 46mi, 74km
Updated: Tue, 19-Jun-2018 11:54am EDT
Partly cloudy
Partly cloudy
 Wind from NNW
Wind: NNW 16 mph , 26 km/h, Gust: 22 mph , 35 km/h
Temperature: 66°F , 19°C
Dew Point: 50°F , 10°C
Humidity: 56%
Barometer: 29.91 inHg , 1012.9 hPa
Clouds: Partly cloudy
Visibility: 10 miles , 16 km
Cloud details: Partly cloudy 3000 ft
Partly cloudy 18000 ft
2018/06/19 15:54 KBTV 191554Z 34014G19KT 10SM SCT030 SCT180 19/10 A2991 RMK AO2 SLP128 T01940100
CWFQ - Frelighsburg, Quebec, Canada
Distance from station: NW 47mi, 75km
Updated: Tue, 19-Jun-2018 12:00pm EDT

 Wind from WNW
Wind: WNW 5 mph , 7 km/h
Temperature: 61°F , 16°C
Dew Point: 50°F , 10°C
Humidity: 68%
2018/06/19 16:00 CWFQ 191600Z AUTO 30004KT 16/10 RMK AO1 SLP125 T01630099 50003
 
KMWN - Mount Washington, New Hampshire, USA
Distance from station: ESE 49mi, 79km
Updated: Tue, 19-Jun-2018 10:51am EDT
NOT Current
Fog, Overcast
Fog, Overcast
 Wind from NW
Wind: NW 66 mph , 106 km/h, Gust: 76 mph , 122 km/h
Temperature: 37°F , 3°C
Wind Chill: 20°F , -7°C
Dew Point: 37°F , 3°C
Humidity: 100%
Summary: Fog
Clouds: Overcast
Visibility: 1/8 mile , 2 km
Cloud details: Overcast 200 ft
2018/06/19 14:51 KMWN 191451Z 32057G66KT 1/8SM FG VV002 03/03 RMK FG INTMT
KBML - Berlin, New Hampshire, USA
Distance from station: E 51mi, 83km
Updated: Tue, 19-Jun-2018 11:52am EDT
Clear
Clear
 Wind from NNW
Wind: NNW 13 mph , 20 km/h, Gust: 21 mph , 33 km/h
Temperature: 66°F , 19°C
Dew Point: 48°F , 9°C
Humidity: 52%
Barometer: 29.83 inHg , 1010.2 hPa
Clouds: Clear
Visibility: 10 miles , 16 km
2018/06/19 15:52 KBML 191552Z AUTO 33011G18KT 10SM CLR 19/09 A2983 RMK AO2 SLP098 T01890089
 
KFSO - Highgate, Vermont, USA
Distance from station: NW 52mi, 84km
Updated: Tue, 19-Jun-2018 11:55am EDT
Mostly cloudy
Mostly cloudy
 Wind from WNW
Wind: WNW 6 mph , 9 km/h
Temperature: 66°F , 19°C
Dew Point: 52°F , 11°C
Humidity: 60%
Barometer: 29.91 inHg , 1012.9 hPa
Clouds: Mostly cloudy
Visibility: 10 miles , 16 km
Cloud details: Mostly cloudy 3200 ft
2018/06/19 15:55 KFSO 191555Z AUTO 29005KT 10SM BKN032 19/11 A2991 RMK AO2 T01850108
CWTT - Lac Memphremagog, Quebec, Canada
Distance from station: N 53mi, 85km
Updated: Tue, 19-Jun-2018 12:00pm EDT

 Wind from NW
Wind: NW 9 mph , 15 km/h, Gust: 17 mph , 28 km/h
Temperature: 63°F , 17°C
Dew Point: 48°F , 9°C
Humidity: 59%
2018/06/19 16:00 CWTT 191600Z AUTO 32008G15KT 17/09 RMK AO1 PK WND 29017/1513 T01670089
 
K1P1 - Plymouth, New Hampshire, USA
Distance from station: SSE 55mi, 88km
Updated: Tue, 19-Jun-2018 11:55am EDT
Partly cloudy
Partly cloudy
 Wind from W
Wind: W 14 mph , 22 km/h, Gust: 20 mph , 31 km/h
Temperature: 70°F , 21°C
Dew Point: 52°F , 11°C
Humidity: 53%
Barometer: 29.82 inHg , 1009.8 hPa
Clouds: Partly cloudy
Cloud details: Partly cloudy 4200 ft
2018/06/19 15:55 K1P1 191555Z AUTO 28012G17KT SCT042 21/11 A2982 RMK AO2 T02050112 PWINO
KLEB - Lebanon, New Hampshire, USA
Distance from station: S 60mi, 97km
Updated: Tue, 19-Jun-2018 11:53am EDT
Few Clouds
Few Clouds
 Wind from NW
Wind: NW 9 mph , 15 km/h, Gust: 22 mph , 35 km/h
Temperature: 72°F , 22°C
Dew Point: 52°F , 11°C
Humidity: 50%
Barometer: 29.85 inHg , 1010.8 hPa
Clouds: Few Clouds
Visibility: 10 miles , 16 km
Cloud details: Few Clouds 3800 ft
2018/06/19 15:53 KLEB 191553Z 32008G19KT 290V350 10SM FEW038 22/11 A2985 RMK AO2 SLP098 T02170106
 
KPBG - Plattsburgh Afb, New York, USA
Distance from station: W 62mi, 100km
Updated: Tue, 19-Jun-2018 11:53am EDT
Clear
Clear
 Wind from NNW
Wind: NNW 12 mph , 19 km/h
Temperature: 68°F , 20°C
Dew Point: 50°F , 10°C
Humidity: 53%
Barometer: 29.91 inHg , 1012.9 hPa
Clouds: Clear
Visibility: 10 miles , 16 km
2018/06/19 15:53 KPBG 191553Z AUTO 34010KT 10SM CLR 20/10 A2991 RMK AO2 SLP127 T02000100
CWQH - Lennoxville, Quebec, Canada
Distance from station: NNE 63mi, 101km
Updated: Tue, 19-Jun-2018 12:00pm EDT

 Wind from NW
Wind: NW 13 mph , 20 km/h, Gust: 20 mph , 31 km/h
Temperature: 64°F , 18°C
Dew Point: 52°F , 11°C
Humidity: 64%
2018/06/19 16:00 CWQH 191600Z AUTO 31011G17KT 18/11 RMK AO1 PK WND 33018/1522 T01790112
 
CMGB - Granby, Quebec, Canada
Distance from station: NNW 65mi, 105km
Updated: Tue, 19-Jun-2018 12:00pm EDT

 Wind from W
Wind: W 6 mph , 9 km/h
Temperature: 64°F , 18°C
Dew Point: 50°F , 10°C
Humidity: 60%
2018/06/19 16:00 CMGB 191600Z AUTO 27005KT 18/10 RMK AO1 SLP118 T01840103 58001
CYSC - Sherbrooke, Quebec, Canada
Distance from station: NNE 69mi, 112km
Updated: Tue, 19-Jun-2018 12:00pm EDT
Partly cloudy
Partly cloudy
 Wind from NW
Wind: NW 12 mph , 19 km/h, Gust: 22 mph , 35 km/h
Temperature: 63°F , 17°C
Dew Point: 50°F , 10°C
Humidity: 64%
Barometer: 29.85 inHg , 1010.8 hPa
Clouds: Partly cloudy
Visibility: 9 miles , 14 km
Cloud details: Partly cloudy 3500 ft
Partly cloudy 25000 ft
2018/06/19 16:00 CYSC 191600Z AUTO 31010G19KT 270V330 9SM SCT035 SCT250 17/10 A2985 RMK SLP109 DENSITY ALT 1300FT
 
KIZG - Fryeburg, Maine, USA
Distance from station: ESE 72mi, 117km
Updated: Tue, 19-Jun-2018 11:54am EDT
Clear
Clear
 Wind from N
Wind: N 16 mph , 26 km/h, Gust: 22 mph , 35 km/h
Temperature: 73°F , 23°C
Dew Point: 52°F , 11°C
Humidity: 47%
Barometer: 29.78 inHg , 1008.5 hPa
Clouds: Clear
Visibility: 10 miles , 16 km
2018/06/19 15:54 KIZG 191554Z AUTO 01014G19KT 10SM CLR 23/11 A2978 RMK AO2 SLP082 T02280106